Flight Track Log - Related Links

Times and Time Zones

All times are in EDT time to prevent confusion due to time zone crossing. See the AWE997 flight status page for this flight to view local times or setup timezone preferences in your user account.

Time Position Orientation Groundspeed Altitude Reporting Facility
EDT Latitude Longitude Course Direction KTS MPH feet Rate Location/Type
Tue 10:56:00 AM 41.9667 -87.5582 90° East  Level FlightAware Approximate
Tue 10:56:10 AM 41.9333 -87.8167 85° East 206 237 4,300  Level Chicago TRACON
Tue 10:57:00 AM 41.9520 -87.3886 97° East  Level FlightAware Approximate
Tue 10:57:10 AM 41.9333 -87.7167 90° East 280 322 5,000  Level Chicago TRACON
Tue 10:58:00 AM 41.9395 -87.2186 95° East  Level FlightAware Approximate
Tue 10:59:00 AM 41.9333 -87.0482 90° East  Level FlightAware Approximate
Tue 10:59:33 AM 41.9431 -87.4689 87° East 299 344 10,100  Level Chicago Center
Tue 11:00:00 AM 41.9333 -86.8934 90° East  Level FlightAware Approximate
Tue 11:00:35 AM 41.9461 -87.3478 88° East 318 366 11,400  Level Chicago Center
Tue 11:01:00 AM 41.9419 -86.7392 85° East  Level FlightAware Approximate
Tue 11:01:36 AM 41.9464 -87.2014 90° East 380 437 13,500  Level Chicago Center
Tue 11:02:38 AM 41.9472 -87.0239 90° East 396 456 16,100 1,694 Climbing Chicago Center
Tue 11:03:40 AM 41.9492 -86.8733 89° East 402 463 17,000 1,220 Climbing Chicago Center
Tue 11:04:41 AM 41.9508 -86.7231 89° East 404 465 18,600 1,610 Climbing Chicago Center
Tue 11:05:43 AM 41.9525 -86.5689 89° East 411 473 20,300 1,645 Climbing Chicago Center
Tue 11:06:45 AM 41.9547 -86.4103 89° East 421 484 22,000 1,512 Climbing Chicago Center
Tue 11:07:46 AM 41.9553 -86.2497 90° East 427 491 23,400 1,415 Climbing Chicago Center
Tue 11:08:48 AM 41.9433 -86.0819 95° East 449 517 24,900 1,220 Climbing Chicago Center
Tue 11:09:49 AM 41.9269 -85.9086 97° East 464 534 25,900 1,122 Climbing Chicago Center
Tue 11:10:51 AM 41.9097 -85.7289 97° East 480 552 27,200 1,122 Climbing Chicago Center
Tue 11:11:52 AM 41.8931 -85.5444 97° East 493 567 28,200 1,122 Climbing Chicago Center
Tue 11:12:54 AM 41.8708 -85.3111 97° East 518 596 29,500 1,258 Climbing Chicago Center
Tue 11:13:56 AM 41.8506 -85.1208 98° East 512 589 30,800 1,078 Climbing Chicago Center
Tue 11:15:02 AM 41.8319 -84.9200 97° East 533 613 31,800 1,000 Climbing Cleveland Center
Tue 11:16:02 AM 41.8119 -84.7319 98° East 533 613 32,900 1,050 Climbing Cleveland Center
Tue 11:17:02 AM 41.7917 -84.5356 98° East 528 608 33,900 950 Climbing Cleveland Center
Tue 11:18:02 AM 41.7775 -84.3397 95° East 528 608 34,800 550 Climbing Cleveland Center
Tue 11:19:02 AM 41.7739 -84.1222 91° East 523 602 35,000 100 Climbing Cleveland Center
Tue 11:20:02 AM 41.7717 -83.9217 91° East 529 609 35,000  Level Cleveland Center
Tue 11:21:02 AM 41.7711 -83.7156 90° East 537 618 35,000  Level Cleveland Center
Tue 11:23:02 AM 41.7461 -83.3106 95° East 542 624 35,000  Level Cleveland Center
Tue 11:24:02 AM 41.7258 -83.1094 98° East 542 624 35,000  Level Cleveland Center
Tue 11:25:02 AM 41.7050 -82.9056 98° East 547 629 35,000  Level Cleveland Center
Tue 11:26:02 AM 41.6839 -82.7044 98° East 547 629 35,000  Level Cleveland Center
Tue 11:27:02 AM 41.6644 -82.5067 97° East 547 629 35,000  Level Cleveland Center
Tue 11:28:02 AM 41.6464 -82.3256 98° East 542 624 35,000  Level Cleveland Center
Tue 11:29:02 AM 41.6264 -82.1275 98° East 541 623 35,000 50 Level Cleveland Center
Tue 11:30:02 AM 41.6039 -81.9272 98° East 541 623 35,100  Climbing Cleveland Center
Tue 11:31:02 AM 41.5811 -81.7350 99° East 536 617 35,000 -50 Descending Cleveland Center
Tue 11:32:02 AM 41.5578 -81.5322 99° East 523 602 35,000  Level Cleveland Center
Tue 11:33:02 AM 41.5383 -81.3489 98° East 506 582 35,000  Level Cleveland Center
Tue 11:34:02 AM 41.4956 -81.1764 108° East 500 575 35,000  Level Cleveland Center
Tue 11:35:02 AM 41.4172 -81.0261 125° Southeast 487 560 35,000  Level Cleveland Center
Tue 11:36:02 AM 41.3239 -80.8983 134° Southeast 487 560 35,000  Level Cleveland Center
Tue 11:37:02 AM 41.2406 -80.7792 133° Southeast 482 555 35,000  Level Cleveland Center
Tue 11:38:02 AM 41.1469 -80.6519 134° Southeast 482 555 35,000  Level Cleveland Center
Tue 11:39:02 AM 41.0531 -80.5169 133° Southeast 482 555 35,000  Level Cleveland Center
Tue 11:40:02 AM 40.9550 -80.3853 135° Southeast 487 560 35,000  Level Cleveland Center
Tue 11:41:02 AM 40.8589 -80.2536 134° Southeast 487 560 35,000 50 Level Cleveland Center
Tue 11:42:02 AM 40.8061 -80.0811 112° Southeast 501 577 35,100  Climbing Cleveland Center
Tue 11:43:02 AM 40.7678 -79.9006 106° East 491 565 35,000 -50 Descending Cleveland Center
Tue 11:44:02 AM 40.7289 -79.7283 107° East 491 565 35,000  Level Cleveland Center
Tue 11:45:02 AM 40.6900 -79.5508 106° East 497 572 35,000  Level Cleveland Center
Tue 11:46:02 AM 40.6508 -79.3817 107° East 492 566 35,000 50 Level Cleveland Center
Tue 11:47:02 AM 40.6114 -79.2072 107° East 492 566 35,100  Climbing Cleveland Center
Tue 11:48:02 AM 40.5694 -79.0389 108° East 492 566 35,000 -650 Descending Cleveland Center
Tue 11:49:02 AM 40.5253 -78.8567 108° East 486 559 33,800 -1,500 Descending Cleveland Center
Tue 11:50:02 AM 40.4872 -78.6939 107° East 479 551 32,000 -1,950 Descending Cleveland Center
Tue 11:51:02 AM 40.4467 -78.5258 108° East 474 545 29,900 -2,153 Descending Cleveland Center
Tue 11:52:52 AM 40.3761 -78.2314 107° East 472 543 25,900 -1,729 Descending New York Center
Tue 11:53:52 AM 40.3378 -78.0747 108° East 456 525 25,000 -446 Descending New York Center
Tue 11:54:53 AM 40.3119 -77.9194 102° East 451 519 25,000 -248 Level New York Center
Tue 11:55:53 AM 40.3089 -77.7611 91° East 436 502 24,500 -712 Descending New York Center
Tue 11:56:51 AM 40.3094 -77.6061 90° East 429 494 23,600 -958 Descending New York Center
Tue 11:57:52 AM 40.3078 -77.4533 91° East 423 487 22,600 -1,426 Descending New York Center
Tue 11:58:53 AM 40.3061 -77.3008 91° East 418 481 20,700 -2,182 Descending New York Center
Tue 11:59:53 AM 40.3033 -77.1589 91° East 410 472 18,200 -1,350 Descending New York Center
Tue 12:00:53 PM 40.2900 -77.0161 97° East 399 459 18,000 -102 Descending New York Center
Tue 12:01:51 PM 40.2611 -76.8911 107° East 399 459 18,000  Level New York Center
Tue 12:02:51 PM 40.2253 -76.7383 107° East 404 465 18,000 -446 Level New York Center
Tue 12:03:52 PM 40.1944 -76.6025 107° East 397 457 17,100 -1,377 Descending New York Center
Tue 12:04:53 PM 40.1614 -76.4719 108° East 388 447 15,200 -1,963 Descending New York Center
Tue 12:05:39 PM 40.1378 -76.3694 107° East 370 426 13,600 -2,091 Descending FAA TRACON SMA TRACON (SMA)
Tue 12:05:59 PM 40.1297 -76.3289 105° East 368 423 12,900 -2,100 Descending FAA TRACON SMA TRACON (SMA)
Tue 12:06:19 PM 40.1183 -76.2789 107° East 364 419 12,200 -1,950 Descending FAA TRACON SMA TRACON (SMA)
Tue 12:06:39 PM 40.1169 -76.2403 93° East 357 411 11,600 -1,500 Descending FAA TRACON SMA TRACON (SMA)
Tue 12:06:59 PM 40.1142 -76.2000 95° East 359 413 11,200 -1,050 Descending FAA TRACON SMA TRACON (SMA)
Tue 12:07:19 PM 40.1100 -76.1531 97° East 337 388 10,900 -750 Descending FAA TRACON SMA TRACON (SMA)
Tue 12:07:39 PM 40.1094 -76.1189 91° East 328 377 10,700 -600 Descending FAA TRACON SMA TRACON (SMA)
Tue 12:07:59 PM 40.1053 -76.0828 99° East 312 359 10,500 -900 Descending FAA TRACON SMA TRACON (SMA)
Tue 12:08:19 PM 40.1025 -76.0419 95° East 296 341 10,100 -1,200 Descending FAA TRACON SMA TRACON (SMA)
Tue 12:08:39 PM 40.1000 -76.0103 96° East 282 325 9,700 -1,500 Descending FAA TRACON SMA TRACON (SMA)
Tue 12:08:59 PM 40.0950 -75.9794 102° East 294 338 9,100 -1,756 Descending FAA TRACON SMA TRACON (SMA)
Tue 12:09:20 PM 40.0758 -75.9483 129° Southeast 287 330 8,500 -1,463 Descending FAA TRACON SMA TRACON (SMA)
Tue 12:09:40 PM 40.0589 -75.9250 133° Southeast 279 321 8,100 -1,500 Descending FAA TRACON SMA TRACON (SMA)
Tue 12:10:00 PM 40.0406 -75.8972 131° Southeast 282 325 7,500 -1,650 Descending FAA TRACON SMA TRACON (SMA)
Tue 12:10:20 PM 40.0225 -75.8739 135° Southeast 278 320 7,000 -1,350 Descending FAA TRACON SMA TRACON (SMA)
Tue 12:10:40 PM 40.0081 -75.8506 129° Southeast 274 315 6,600 -1,200 Descending FAA TRACON SMA TRACON (SMA)
Tue 12:11:00 PM 39.9922 -75.8283 133° Southeast 272 313 6,200 -900 Descending FAA TRACON SMA TRACON (SMA)
Tue 12:11:20 PM 39.9728 -75.8011 133° Southeast 269 310 6,000 -300 Descending FAA TRACON SMA TRACON (SMA)
Tue 12:11:40 PM 39.9575 -75.7783 131° Southeast 270 311 6,000 -450 Level FAA TRACON SMA TRACON (SMA)
Tue 12:12:00 PM 39.9422 -75.7561 132° Southeast 270 311 5,700 -1,200 Descending FAA TRACON SMA TRACON (SMA)
Tue 12:12:20 PM 39.9233 -75.7294 133° Southeast 268 308 5,200 -1,350 Descending FAA TRACON SMA TRACON (SMA)
Tue 12:12:40 PM 39.9078 -75.7069 132° Southeast 265 305 4,800 -1,200 Descending FAA TRACON SMA TRACON (SMA)
Tue 12:13:00 PM 39.8950 -75.6783 120° Southeast 252 290 4,400 -1,500 Descending FAA TRACON SMA TRACON (SMA)
Tue 12:13:20 PM 39.8900 -75.6511 103° East 249 287 3,800 -1,650 Descending FAA TRACON SMA TRACON (SMA)
Tue 12:13:40 PM 39.8850 -75.6256 104° East 243 280 3,300 -1,050 Descending FAA TRACON SMA TRACON (SMA)
Tue 12:14:00 PM 39.8797 -75.5986 104° East 242 278 3,100 -300 Descending FAA TRACON SMA TRACON (SMA)
Tue 12:14:20 PM 39.8742 -75.5689 104° East 222 255 3,100  Level FAA TRACON SMA TRACON (SMA)
Tue 12:14:40 PM 39.8697 -75.5486 106° East 195 224 3,100  Level FAA TRACON SMA TRACON (SMA)
Tue 12:15:00 PM 39.8664 -75.5297 103° East 181 208 3,100 -750 Level FAA TRACON SMA TRACON (SMA)
Tue 12:15:20 PM 39.8619 -75.5067 104° East 167 192 2,600 -1,350 Descending FAA TRACON SMA TRACON (SMA)
Tue 12:15:40 PM 39.8578 -75.4878 106° East 170 196 2,200 -1,050 Descending FAA TRACON SMA TRACON (SMA)
Tue 12:16:00 PM 39.8542 -75.4689 104° East 175 201 1,900 -450 Descending FAA TRACON SMA TRACON (SMA)
Tue 12:16:20 PM 39.8497 -75.4447 103° East 176 203 1,900  Level FAA TRACON SMA TRACON (SMA)
Tue 12:16:40 PM 39.8403 -75.4236 120° Southeast 176 203 1,900  Level FAA TRACON SMA TRACON (SMA)
Tue 12:17:00 PM 39.8417 -75.4044 85° East 175 201 1,900  Level FAA TRACON SMA TRACON (SMA)
Tue 12:17:20 PM 39.8403 -75.3858 96° East 151 174 1,900  Level FAA TRACON SMA TRACON (SMA)

Login

Don't have an account? Register now (free) for customized features, flight alerts, and more!